Flugplatz Hannover

Bericht für EDDV

vom 18.01. um 17:20 UTC

Wind 8 kt aus 240°

Sichtweite 10 km oder mehr

Code: VCSH

aufgebrochene Bewölkung in 3500 ft

Temperatur 5.0°C

Taupunkt 2.0°C

Luftfeuchtigkeit 81%

Luftdruck 1024 hPa

keine wesentliche Wetteränderung innerhalb den nächsten 2 Stunden zu erwarten

EDDV 181720Z 24008KT 9999 VCSH BKN035 05/02 Q1024 NOSIG

Prognose für EDDV

vom 18.01. um 00:00 UTC

Zwischen 00:00 UTC und 00:00 UTC

Wind 6 kt aus 250°

Sichtweite 10 km oder mehr

aufgebrochene Bewölkung in 2000 ft


Zwischen 00:00 UTC und 00:00 UTC zeitweise

aufgebrochene Bewölkung in 1300 ft


Zwischen 00:00 UTC und 00:00 UTC zeitweise mit einer Wahrscheinlichkeit von 30%

Sichtweite 4500 m

schwacher Regenschauer

aufgebrochene Bewölkung in 900 ft


Am 19.01. zwischen 00:00 und 00:00 UTC übergehend zu

Wind 6 kt aus 310°

Sichtweite 10 km oder mehr

aufgebrochene Bewölkung in 2000 ft

TAF EDDV 181700Z 1818/1918 25006KT 9999 BKN020 TEMPO 1820/1909 BKN013 PROB30 TEMPO 1821/1909 4500 -SHRA BKN009CB BECMG 1909/1911 31006KT
Impressum